Enterprise, Kansas
Current Conditions -  °F | °C
As of 9:58 AM on Thursday 23 Oct 2014 (Local Time) from KFRI Reporting Station
Overcast Overcast  
Wind Chill: 62°   Ceiling: 3000
Heat Index: 62°   Visibility: 10mi
Dew Point: 62°   Wind: 6mph
Humidity: 100%   Direction: 230°SW
Pressure: 30.09"   Gusts: NA
Location:  38.9°N, 97.12°W
Report Text: KFRI 231458Z AUTO 23005KT 10SM SCT016 OVC030 17/17 A3009 RMK AO2 SLP184 60000 T01690169 52007
Loading
Personal Weather Stations






























Interactive Weather Map
Tropical Storm Tracking
New forecast layout! Learn more

10-Day Weather Forecast

Advertisements
Track Severe Weather on mobile